Time;durP1;ratioP1;P1;durP2;ratioP2;P2;SDS_P1;SDS_P2;PMS_P1;PMS_P2;Temp;Humidity;BMP_temperature;BMP_pressure;BME280_temperature;BME280_humidity;BME280_pressure;Samples;Min_cycle;Max_cycle;Signal;HPM_P1;HPM_P2
2023/09/02 00:01:11;;;;;;;3.40;2.50;;;;;;;11.87;78.35;99280.69;105197;1263;73475;-23
2023/09/02 00:03:39;;;;;;;7.00;3.10;;;;;;;12.26;79.12;99284.00;105183;1261;71381;-23
2023/09/02 00:06:07;;;;;;;5.40;3.70;;;;;;;12.79;77.77;99278.45;105162;1263;61125;-23
2023/09/02 00:08:35;;;;;;;6.80;3.50;;;;;;;12.85;77.18;99278.85;105214;1261;61119;-23
2023/09/02 00:11:03;;;;;;;6.40;4.00;;;;;;;12.70;77.26;99278.20;105245;1261;72046;-23
2023/09/02 00:21:12;;;;;;;8.10;2.90;;;;;;;11.87;79.40;99276.45;102758;1290;599936;-21
2023/09/02 00:23:43;;;;;;;4.70;3.10;;;;;;;12.45;79.46;99279.11;105061;1264;61285;-22
2023/09/02 00:26:12;;;;;;;10.90;4.20;;;;;;;13.00;77.11;99282.98;104884;1264;61176;-22
2023/09/02 00:28:40;;;;;;;6.80;3.50;;;;;;;13.06;76.40;99283.13;104848;1272;70998;-21
2023/09/02 00:31:08;;;;;;;9.90;4.90;;;;;;;12.91;76.72;99283.84;104867;1264;73019;-21
2023/09/02 00:41:12;;;;;;;4.10;2.60;;;;;;;12.14;79.08;99277.23;102700;1293;601270;-21
2023/09/02 00:43:40;;;;;;;7.30;3.00;;;;;;;12.67;79.47;99277.06;104855;1266;61280;-22
2023/09/02 00:53:36;;;;;;;7.70;4.70;;;;;;;12.75;76.44;99275.86;102651;1293;601099;-22
2023/09/02 00:56:04;;;;;;;6.50;4.50;;;;;;;12.40;77.10;99274.98;104824;1266;61186;-21
2023/09/02 00:58:31;;;;;;;6.50;4.50;;;;;;;12.05;77.78;99270.64;104747;1271;61123;-21
2023/09/02 01:01:00;;;;;;;5.50;3.10;;;;;;;11.75;79.43;99269.11;104810;1267;72814;-21
2023/09/02 01:03:29;;;;;;;8.30;3.90;;;;;;;12.08;80.04;99270.04;104749;1267;74307;-21
2023/09/02 01:05:57;;;;;;;7.90;4.10;;;;;;;12.56;78.92;99265.61;104851;1271;72683;-22
2023/09/02 01:08:25;;;;;;;7.70;4.80;;;;;;;12.60;77.93;99267.19;102694;1271;2947464;-21
2023/09/02 01:18:33;;;;;;;6.30;3.80;;;;;;;11.87;79.20;99260.65;102645;1290;600798;-22
2023/09/02 01:28:45;;;;;;;8.60;5.80;;;;;;;12.52;77.47;99262.54;102558;1292;599991;-23
2023/09/02 01:31:13;;;;;;;8.20;5.30;;;;;;;12.27;77.84;99264.95;104753;1266;61231;-23
2023/09/02 01:41:21;;;;;;;8.20;4.90;;;;;;;12.90;77.73;99263.97;102586;1293;601261;-22
2023/09/02 01:43:49;;;;;;;8.40;4.70;;;;;;;12.94;76.87;99265.48;104790;1272;61199;-22
2023/09/02 01:46:18;;;;;;;8.00;5.40;;;;;;;12.75;76.76;99266.11;104777;1267;61069;-21
2023/09/02 01:48:46;;;;;;;11.60;5.70;;;;;;;12.47;77.09;99270.25;104823;1273;72231;-21
2023/09/02 01:51:14;;;;;;;7.40;5.20;;;;;;;12.19;77.68;99266.21;104463;1267;74288;-21
2023/09/02 01:53:42;;;;;;;8.40;5.30;;;;;;;11.93;78.07;99264.30;104452;1267;71480;-24
2023/09/02 01:56:10;;;;;;;5.90;3.60;;;;;;;11.70;78.54;99260.30;102670;1267;2901238;-24
2023/09/02 01:58:37;;;;;;;6.60;3.90;;;;;;;12.09;78.71;99264.89;104663;1264;61158;-25
2023/09/02 02:01:05;;;;;;;8.20;4.20;;;;;;;12.58;77.67;99265.33;104648;1271;72278;-24
2023/09/02 02:03:38;;;;;;;5.90;3.60;;;;;;;12.62;77.01;99268.63;104797;1270;73241;-24
2023/09/02 02:06:07;;;;;;;5.50;3.60;;;;;;;12.41;77.31;99266.20;104679;1267;72705;-25
2023/09/02 02:09:01;;;;;;;4.90;3.40;;;;;;;12.13;77.66;99266.84;104531;1267;61007;-22
2023/09/02 02:11:31;;;;;;;5.40;3.90;;;;;;;11.81;78.59;99267.02;104657;1266;61095;-22
2023/09/02 02:14:02;;;;;;;4.90;2.70;;;;;;;11.59;79.59;99264.33;104493;1266;73034;-22
2023/09/02 02:16:30;;;;;;;4.80;2.90;;;;;;;11.98;79.97;99267.40;105035;1267;74317;-22
2023/09/02 02:18:58;;;;;;;5.20;3.50;;;;;;;12.44;78.93;99272.91;105257;1263;72641;-23
2023/09/02 02:21:27;;;;;;;11.40;3.80;;;;;;;12.42;77.35;99274.48;105197;1267;61225;-22
2023/09/02 02:23:56;;;;;;;9.20;4.30;;;;;;;12.16;76.95;99275.33;105220;1260;61176;-22
2023/09/02 02:26:25;;;;;;;6.20;4.50;;;;;;;11.82;76.58;99275.10;105243;1260;71934;-22
2023/09/02 02:28:52;;;;;;;10.70;4.60;;;;;;;11.49;77.27;99279.33;105266;1260;74294;-22
2023/09/02 02:31:20;;;;;;;8.20;5.10;;;;;;;11.21;78.04;99272.25;105135;1260;72627;-22
2023/09/02 02:33:48;;;;;;;8.60;3.40;;;;;;;10.99;79.45;99269.09;105215;1263;61753;-22
2023/09/02 02:36:15;;;;;;;6.60;3.60;;;;;;;11.43;80.40;99269.59;105055;1266;61264;-22
2023/09/02 02:45:41;;;;;;;7.30;4.10;;;;;;;11.84;79.00;99263.45;102617;1292;599947;-21
2023/09/02 02:48:15;;;;;;;7.70;4.70;;;;;;;11.59;79.38;99259.59;104752;1275;61187;-21
2023/09/02 02:58:23;;;;;;;7.00;4.00;;;;;;;12.30;78.67;99260.58;103354;1283;600122;-22
2023/09/02 03:01:03;;;;;;;9.40;3.60;;;;;;;12.38;77.80;99260.92;104798;1267;61170;-21
2023/09/02 03:03:32;;;;;;;7.20;3.70;;;;;;;12.19;77.65;99260.39;104735;1272;61116;-21
2023/09/02 03:06:02;;;;;;;7.80;4.30;;;;;;;11.94;78.02;99254.63;104771;1274;72207;-21
2023/09/02 03:16:11;;;;;;;4.30;2.40;;;;;;;11.20;81.27;99245.54;102690;1290;600232;-21
2023/09/02 03:18:41;;;;;;;4.50;2.30;;;;;;;11.83;81.37;99245.95;105069;1270;61234;-21
2023/09/02 03:21:09;;;;;;;3.90;2.40;;;;;;;12.47;79.59;99247.25;104892;1269;61199;-22
2023/09/02 03:23:37;;;;;;;8.60;3.10;;;;;;;12.59;78.61;99247.11;105088;1263;72198;-21
2023/09/02 03:26:11;;;;;;;8.00;3.30;;;;;;;12.48;78.21;99246.17;105025;1264;74318;-21
2023/09/02 03:28:41;;;;;;;4.70;3.40;;;;;;;12.27;78.24;99244.80;102687;1272;2888768;-23
2023/09/02 03:31:10;;;;;;;5.30;3.70;;;;;;;12.06;78.43;99247.41;104885;1271;61175;-22
2023/09/02 03:41:19;;;;;;;6.40;3.30;;;;;;;13.00;78.27;99251.19;102600;1294;600310;-21
2023/09/02 03:43:47;;;;;;;6.70;4.00;;;;;;;13.17;76.96;99253.88;104876;1265;61172;-21
2023/09/02 03:46:15;;;;;;;9.00;3.60;;;;;;;13.06;76.80;99252.76;104836;1266;61175;-21
2023/09/02 03:48:46;;;;;;;12.20;4.10;;;;;;;12.87;77.19;99256.36;104780;1266;70019;-21
2023/09/02 03:51:17;;;;;;;7.20;3.70;;;;;;;12.69;77.66;99263.09;104728;1266;73125;-21
2023/09/02 04:01:20;;;;;;;8.00;3.80;;;;;;;12.91;77.50;99261.77;102658;1292;599475;-21
2023/09/02 04:03:48;;;;;;;7.20;3.70;;;;;;;12.79;77.46;99260.75;104882;1267;61126;-21
2023/09/02 04:13:56;;;;;;;7.40;2.90;;;;;;;12.14;80.56;99255.27;102602;1291;600476;-23
2023/09/02 04:16:24;;;;;;;6.50;3.00;;;;;;;12.77;80.64;99256.32;104756;1266;61095;-23
2023/09/02 04:18:52;;;;;;;14.10;3.80;;;;;;;13.33;78.95;99257.21;105485;1260;61050;-22
2023/09/02 04:29:07;;;;;;;17.10;8.70;;;;;;;13.14;77.54;99281.72;102590;1295;599663;-23
2023/09/02 04:31:35;;;;;;;10.20;5.60;;;;;;;12.98;77.78;99283.84;104793;1272;61202;-23
2023/09/02 04:34:03;;;;;;;7.30;3.40;;;;;;;12.88;78.51;99282.22;104819;1267;61084;-23
2023/09/02 04:44:09;;;;;;;6.50;4.00;;;;;;;14.29;75.08;99292.69;102683;1289;599886;-21
2023/09/02 04:46:37;;;;;;;9.70;4.10;;;;;;;14.10;75.55;99294.06;104916;1270;61190;-22
2023/09/02 04:49:05;;;;;;;9.60;4.10;;;;;;;13.94;75.74;99293.95;104817;1264;61071;-21
2023/09/02 04:59:19;;;;;;;10.50;4.70;;;;;;;14.94;75.45;99295.55;102645;1290;599057;-21
2023/09/02 05:01:47;;;;;;;10.20;4.50;;;;;;;15.26;73.72;99286.70;104782;1266;61016;-21
2023/09/02 05:04:15;;;;;;;16.50;4.50;;;;;;;15.44;72.76;99291.05;104806;1266;61126;-21
2023/09/02 05:06:43;;;;;;;16.20;6.40;;;;;;;15.48;72.49;99292.99;104744;1266;72205;-21
2023/09/02 05:16:49;;;;;;;11.30;6.10;;;;;;;15.53;73.22;99292.50;102590;1292;600071;-21
2023/09/02 05:19:17;;;;;;;9.20;4.50;;;;;;;15.62;72.89;99292.83;104864;1270;61170;-21
2023/09/02 05:21:46;;;;;;;12.50;4.70;;;;;;;16.33;72.64;99290.48;104714;1268;61158;-21
2023/09/02 05:31:56;;;;;;;12.10;6.00;;;;;;;17.40;66.46;99294.70;102689;1290;600229;-21
2023/09/02 05:34:24;;;;;;;7.50;5.10;;;;;;;17.10;67.16;99300.55;104836;1267;61125;-22
2023/09/02 05:43:55;;;;;;;9.60;6.10;;;;;;;16.98;68.98;99303.63;102644;1293;600027;-22
2023/09/02 05:53:33;;;;;;;9.60;5.60;;;;;;;16.60;69.57;99313.93;102572;1292;600811;-22
2023/09/02 05:56:00;;;;;;;9.60;5.60;;;;;;;16.58;69.49;99318.35;105139;1263;61111;-21
2023/09/02 05:58:28;;;;;;;7.80;4.40;;;;;;;16.59;69.92;99319.45;105073;1263;61213;-21
2023/09/02 06:00:59;;;;;;;10.60;4.70;;;;;;;17.27;68.99;99320.09;104984;1264;72007;-21
2023/09/02 06:03:26;;;;;;;10.10;5.10;;;;;;;17.98;67.08;99319.19;104908;1264;74288;-21
2023/09/02 06:05:54;;;;;;;9.10;5.60;;;;;;;18.10;65.17;99322.02;104966;1267;72652;-22
2023/09/02 06:08:22;;;;;;;12.30;5.50;;;;;;;18.07;65.41;99321.06;103184;1266;2806001;-22
2023/09/02 06:10:59;;;;;;;9.70;5.80;;;;;;;18.08;65.13;99323.67;105225;1261;61167;-21
2023/09/02 06:13:27;;;;;;;10.00;5.70;;;;;;;17.94;64.88;99326.27;104844;1271;70967;-21
2023/09/02 06:16:02;;;;;;;10.00;5.70;;;;;;;17.66;63.15;99322.27;105024;1261;74411;-21
2023/09/02 06:18:31;;;;;;;8.60;5.90;;;;;;;17.69;65.70;99323.89;105189;1264;72660;-22
2023/09/02 06:28:40;;;;;;;7.50;5.20;;;;;;;18.19;68.41;99325.25;102711;1290;600122;-22
2023/09/02 06:31:08;;;;;;;7.80;4.10;;;;;;;18.97;67.72;99323.98;104902;1267;61218;-22
2023/09/02 06:33:37;;;;;;;12.70;4.80;;;;;;;19.73;65.23;99317.43;105101;1263;61057;-22
2023/09/02 06:43:44;;;;;;;10.10;6.00;;;;;;;19.99;63.25;99314.58;102682;1289;599403;-22
2023/09/02 06:46:14;;;;;;;9.40;4.90;;;;;;;19.92;62.29;99314.73;104908;1265;61129;-21
2023/09/02 06:48:44;;;;;;;8.90;5.20;;;;;;;19.93;62.44;99313.21;104835;1266;61161;-22
2023/09/02 06:51:12;;;;;;;9.00;5.50;;;;;;;19.97;62.01;99309.14;104742;1274;72237;-21
2023/09/02 06:53:40;;;;;;;10.60;5.30;;;;;;;20.04;62.18;99308.55;104704;1266;73086;-22
2023/09/02 06:56:08;;;;;;;10.20;6.20;;;;;;;20.11;61.71;99309.70;104835;1266;73291;-22
2023/09/02 06:58:40;;;;;;;9.60;5.20;;;;;;;20.17;61.64;99313.25;102806;1271;61227;-22
2023/09/02 07:01:18;;;;;;;9.10;5.20;;;;;;;20.23;61.46;99313.46;104895;1263;61031;-24
2023/09/02 07:03:46;;;;;;;7.30;4.40;;;;;;;20.35;61.06;99316.06;104800;1271;72170;-21
2023/09/02 07:12:33;;;;;;;6.60;4.70;;;;;;;20.85;58.52;99310.13;102664;1293;599479;-22
2023/09/02 07:15:01;;;;;;;7.50;4.50;;;;;;;20.85;56.16;99308.70;105031;1267;61136;-22
2023/09/02 07:17:29;;;;;;;9.10;4.60;;;;;;;20.92;57.15;99309.80;104815;1269;61185;-22
2023/09/02 07:19:57;;;;;;;6.90;4.50;;;;;;;21.13;56.79;99309.75;105000;1269;70958;-22
2023/09/02 07:22:25;;;;;;;6.00;4.10;;;;;;;21.34;56.38;99307.89;104846;1267;74306;-21
2023/09/02 07:24:53;;;;;;;7.50;4.30;;;;;;;21.50;55.30;99308.14;104801;1267;72669;-22
2023/09/02 07:27:20;;;;;;;5.90;4.10;;;;;;;21.55;53.71;99310.11;102954;1267;3061494;-21
2023/09/02 07:29:48;;;;;;;7.50;4.40;;;;;;;21.55;52.67;99315.77;105093;1264;61114;-21
2023/09/02 07:32:16;;;;;;;4.90;3.40;;;;;;;21.57;53.79;99311.17;104906;1264;71969;-21
2023/09/02 07:34:44;;;;;;;5.90;3.20;;;;;;;21.79;54.10;99312.16;104983;1264;74289;-21
2023/09/02 07:37:11;;;;;;;8.40;2.80;;;;;;;21.99;53.03;99307.08;104941;1268;70751;-21
2023/09/02 07:47:18;;;;;;;7.00;2.20;;;;;;;22.23;49.61;99304.91;102649;1290;599402;-22
2023/09/02 07:49:46;;;;;;;3.30;2.30;;;;;;;22.38;48.42;99304.59;105251;1257;61107;-21
2023/09/02 07:59:57;;;;;;;3.60;2.20;;;;;;;23.04;45.19;99305.92;102782;1289;599441;-23
2023/09/02 08:02:25;;;;;;;7.50;2.60;;;;;;;23.24;45.44;99306.76;104932;1266;61161;-23
2023/09/02 08:04:52;;;;;;;5.10;3.20;;;;;;;23.44;45.00;99307.20;104804;1266;61161;-23
2023/09/02 08:07:20;;;;;;;5.30;2.70;;;;;;;23.32;43.75;99308.95;104836;1273;71382;-23
2023/09/02 08:09:50;;;;;;;6.70;2.50;;;;;;;23.49;44.27;99302.79;104784;1272;72342;-23
2023/09/02 08:12:17;;;;;;;4.80;2.50;;;;;;;23.63;43.41;99301.33;104778;1269;72675;-23
2023/09/02 08:22:25;;;;;;;2.90;1.80;;;;;;;24.65;41.51;99290.91;102600;1292;600141;-22
2023/09/02 08:32:32;;;;;;;5.00;1.60;;;;;;;24.59;41.53;99297.69;102770;1290;599453;-22
2023/09/02 08:34:59;;;;;;;1.90;1.40;;;;;;;24.98;39.69;99293.31;104867;1264;61116;-22
2023/09/02 08:37:31;;;;;;;4.40;2.00;;;;;;;24.55;38.35;99299.29;104835;1272;61339;-22
2023/09/02 08:39:58;;;;;;;4.40;1.70;;;;;;;24.40;39.99;99302.75;104891;1264;72325;-22
2023/09/02 08:42:26;;;;;;;2.70;1.20;;;;;;;24.75;39.87;99298.24;104788;1264;73179;-22
2023/09/02 08:44:55;;;;;;;2.60;1.70;;;;;;;24.88;38.73;99298.52;104861;1272;72649;-22
2023/09/02 08:47:24;;;;;;;4.20;1.70;;;;;;;25.23;39.47;99298.84;102756;1269;61208;-22
2023/09/02 08:49:52;;;;;;;2.50;1.60;;;;;;;25.64;39.19;99296.60;105157;1264;61173;-22
2023/09/02 08:52:19;;;;;;;3.10;1.60;;;;;;;25.77;36.90;99297.23;105101;1268;72350;-21
2023/09/02 09:02:49;;;;;;;4.00;1.70;;;;;;;25.22;38.46;99297.63;102428;1292;615070;-23
2023/09/02 09:05:16;;;;;;;3.10;1.50;;;;;;;24.88;39.07;99300.16;104838;1266;61087;-23
2023/09/02 09:07:44;;;;;;;3.90;1.80;;;;;;;24.34;38.33;99306.52;105247;1263;61816;-23
2023/09/02 09:10:13;;;;;;;3.10;1.90;;;;;;;24.23;39.49;99305.58;105234;1267;72543;-23
2023/09/02 09:12:40;;;;;;;2.50;1.40;;;;;;;24.15;39.70;99305.72;105021;1263;74156;-23
2023/09/02 09:15:07;;;;;;;3.10;1.80;;;;;;;23.97;40.42;99306.22;103018;1263;2984117;-23
2023/09/02 09:17:34;;;;;;;3.00;1.80;;;;;;;23.97;41.26;99305.13;105255;1259;61042;-23
2023/09/02 09:20:03;;;;;;;3.10;1.90;;;;;;;23.94;40.96;99305.29;105080;1266;61212;-23
2023/09/02 09:22:37;;;;;;;2.40;1.70;;;;;;;23.78;40.79;99307.14;105181;1259;73848;-23
2023/09/02 09:25:04;;;;;;;5.00;1.90;;;;;;;23.47;41.67;99310.42;104882;1259;73261;-23
2023/09/02 09:27:31;;;;;;;3.40;2.10;;;;;;;23.42;42.56;99311.79;105107;1260;72626;-23
2023/09/02 09:29:58;;;;;;;3.50;2.00;;;;;;;23.56;41.55;99310.90;105232;1260;61069;-23
2023/09/02 09:32:25;;;;;;;6.60;1.80;;;;;;;23.45;41.67;99308.95;105280;1259;61130;-22
2023/09/02 09:34:52;;;;;;;3.70;1.90;;;;;;;23.19;41.57;99308.61;105327;1259;73622;-23
2023/09/02 09:37:19;;;;;;;2.80;1.80;;;;;;;23.21;41.70;99311.33;105304;1259;74411;-22
2023/09/02 09:39:47;;;;;;;1.30;1.20;;;;;;;23.04;41.81;99313.97;105171;1260;72424;-23
2023/09/02 09:42:15;;;;;;;3.30;1.60;;;;;;;22.91;42.82;99313.31;104968;1261;61900;-23
2023/09/02 09:44:55;;;;;;;3.10;1.70;;;;;;;22.67;42.67;99312.10;105201;1260;61049;-23
2023/09/02 09:47:23;;;;;;;2.60;1.70;;;;;;;22.80;43.12;99313.73;105196;1264;72995;-23
2023/09/02 09:49:50;;;;;;;2.70;1.60;;;;;;;22.80;43.71;99316.17;105070;1268;72972;-23
2023/09/02 09:52:19;;;;;;;2.20;1.60;;;;;;;22.85;44.04;99319.42;105098;1259;72627;-22
2023/09/02 09:54:50;;;;;;;3.80;1.90;;;;;;;22.58;44.53;99318.21;104978;1260;61110;-23
2023/09/02 09:57:30;;;;;;;3.90;2.40;;;;;;;22.56;44.63;99316.73;105255;1268;61254;-23
2023/09/02 09:59:57;;;;;;;4.90;2.20;;;;;;;22.54;45.37;99314.81;105285;1260;73091;-23
2023/09/02 10:02:25;;;;;;;4.50;1.80;;;;;;;22.64;45.40;99317.83;105266;1263;74322;-23
2023/09/02 10:04:53;;;;;;;2.40;1.60;;;;;;;22.63;44.73;99318.64;105118;1261;72735;-23
2023/09/02 10:07:32;;;;;;;3.50;1.60;;;;;;;22.55;44.75;99320.56;105084;1262;61141;-23
2023/09/02 10:10:04;;;;;;;3.70;1.80;;;;;;;22.46;45.13;99321.38;104977;1268;61142;-23
2023/09/02 10:12:34;;;;;;;3.90;1.70;;;;;;;22.48;45.46;99323.69;105098;1266;72842;-23
2023/09/02 10:15:06;;;;;;;3.30;1.90;;;;;;;22.48;44.70;99319.84;105159;1263;74420;-22
2023/09/02 10:17:34;;;;;;;2.90;1.90;;;;;;;22.48;44.83;99317.55;104916;1271;71866;-22
2023/09/02 10:20:02;;;;;;;4.10;1.60;;;;;;;22.58;44.92;99310.77;105257;1263;61232;-23
2023/09/02 10:22:31;;;;;;;5.70;2.00;;;;;;;22.62;44.46;99314.91;105249;1266;61158;-23
2023/09/02 10:25:10;;;;;;;2.40;1.60;;;;;;;22.66;44.62;99314.05;104984;1262;72842;-23
2023/09/02 10:27:38;;;;;;;4.30;1.70;;;;;;;22.71;43.88;99315.98;105235;1263;74355;-22
2023/09/02 10:30:08;;;;;;;4.00;2.00;;;;;;;22.77;44.69;99318.98;105173;1262;72666;-23
2023/09/02 10:32:41;;;;;;;4.70;2.20;;;;;;;22.78;44.88;99323.64;105002;1264;61947;-23
2023/09/02 10:35:13;;;;;;;2.20;1.60;;;;;;;22.72;45.43;99319.22;105000;1268;61234;-22
2023/09/02 10:37:48;;;;;;;3.00;1.70;;;;;;;22.69;45.14;99319.84;104953;1268;73006;-23
2023/09/02 10:40:26;;;;;;;2.60;2.10;;;;;;;22.41;46.34;99321.35;105241;1267;74152;-22
2023/09/02 10:42:54;;;;;;;6.70;2.20;;;;;;;22.25;46.51;99318.09;105204;1265;72534;-23
2023/09/02 10:45:21;;;;;;;2.30;1.70;;;;;;;22.27;47.32;99317.54;105195;1263;61079;-22
2023/09/02 10:47:50;;;;;;;2.60;2.00;;;;;;;22.25;47.31;99314.10;105155;1265;61068;-22
2023/09/02 10:50:19;;;;;;;3.20;2.00;;;;;;;22.13;47.19;99315.37;105270;1262;73096;-23
2023/09/02 10:52:47;;;;;;;2.60;1.80;;;;;;;22.23;47.36;99316.20;105007;1262;74421;-23
2023/09/02 10:55:27;;;;;;;2.60;2.00;;;;;;;22.28;47.38;99318.56;104922;1266;71098;-23
2023/09/02 10:57:55;;;;;;;3.30;1.90;;;;;;;22.33;47.22;99319.61;105204;1265;61125;-22
2023/09/02 11:00:24;;;;;;;2.70;2.00;;;;;;;22.33;47.11;99321.58;104867;1260;61170;-23
2023/09/02 11:02:53;;;;;;;3.70;2.00;;;;;;;22.22;49.35;99319.59;105083;1269;72891;-22
2023/09/02 11:05:21;;;;;;;3.50;2.20;;;;;;;22.16;49.61;99321.91;105096;1268;74349;-23
2023/09/02 11:07:49;;;;;;;2.80;1.70;;;;;;;22.12;49.29;99324.17;105036;1263;72711;-24
2023/09/02 11:10:17;;;;;;;3.20;2.00;;;;;;;22.08;49.31;99323.74;105114;1263;61074;-24
2023/09/02 11:13:10;;;;;;;2.70;2.10;;;;;;;22.10;50.28;99320.93;104927;1265;61199;-24
2023/09/02 11:15:38;;;;;;;4.00;2.10;;;;;;;22.14;50.06;99322.11;105266;1265;72782;-21
2023/09/02 11:18:32;;;;;;;2.60;1.80;;;;;;;22.26;50.66;99322.23;105260;1262;74596;-21
2023/09/02 11:20:59;;;;;;;5.50;1.90;;;;;;;22.26;49.44;99322.44;105270;1261;72533;-21
2023/09/02 11:23:26;;;;;;;3.70;2.30;;;;;;;22.29;49.95;99323.22;105030;1265;61103;-21
2023/09/02 11:26:03;;;;;;;3.10;1.90;;;;;;;22.46;49.12;99327.99;105233;1266;61206;-21
2023/09/02 11:28:30;;;;;;;3.20;1.80;;;;;;;22.49;48.31;99328.70;105239;1267;71705;-21
2023/09/02 11:31:09;;;;;;;3.60;1.60;;;;;;;22.61;47.51;99327.74;105128;1263;74345;-21
2023/09/02 11:33:37;;;;;;;2.70;1.60;;;;;;;22.86;46.80;99325.60;105130;1263;72726;-21
2023/09/02 11:36:11;;;;;;;2.40;1.70;;;;;;;23.10;45.91;99326.77;105184;1263;61050;-21
2023/09/02 11:38:38;;;;;;;2.50;1.80;;;;;;;23.25;45.17;99323.23;105234;1266;61114;-21
2023/09/02 11:41:07;;;;;;;2.20;1.60;;;;;;;23.34;45.06;99325.55;105206;1265;73106;-21
2023/09/02 11:43:36;;;;;;;3.40;2.00;;;;;;;23.30;44.93;99324.36;105226;1267;74462;-21
2023/09/02 11:46:03;;;;;;;3.40;1.90;;;;;;;23.06;45.93;99331.25;105134;1269;71886;-22
2023/09/02 11:48:30;;;;;;;2.70;1.80;;;;;;;23.03;46.14;99328.05;105139;1265;61262;-23
2023/09/02 11:50:58;;;;;;;4.10;1.80;;;;;;;23.08;45.94;99327.25;105136;1265;61193;-22
2023/09/02 11:53:29;;;;;;;3.80;1.90;;;;;;;23.08;46.72;99322.85;105189;1263;72945;-23
2023/09/02 11:55:56;;;;;;;2.00;1.70;;;;;;;22.97;46.62;99318.69;105177;1261;74202;-23
2023/09/02 11:58:23;;;;;;;3.70;1.80;;;;;;;22.89;46.66;99324.23;105179;1262;72771;-23
2023/09/02 12:00:50;;;;;;;4.40;2.10;;;;;;;22.88;47.09;99327.78;105203;1263;62706;-23
2023/09/02 12:03:24;;;;;;;3.10;2.10;;;;;;;22.83;48.48;99328.36;105231;1265;61117;-23
2023/09/02 12:05:53;;;;;;;4.30;1.70;;;;;;;22.79;47.74;99331.85;104905;1269;73066;-23
2023/09/02 12:08:20;;;;;;;4.70;1.90;;;;;;;22.55;49.84;99334.82;105193;1261;74350;-23
2023/09/02 12:10:47;;;;;;;3.90;2.00;;;;;;;22.32;51.17;99331.60;105236;1263;72716;-23
2023/09/02 12:13:15;;;;;;;2.50;1.80;;;;;;;22.06;51.55;99334.95;105214;1262;61398;-22
2023/09/02 12:15:48;;;;;;;3.00;2.30;;;;;;;21.93;52.11;99336.16;105163;1263;61193;-23
2023/09/02 12:18:16;;;;;;;4.10;2.00;;;;;;;21.79;52.76;99342.38;105123;1263;73096;-22
2023/09/02 12:20:43;;;;;;;4.00;2.70;;;;;;;21.77;53.80;99343.30;105211;1262;74315;-22
2023/09/02 12:23:10;;;;;;;4.90;3.10;;;;;;;21.65;54.49;99346.80;105120;1262;73107;-22
2023/09/02 12:25:39;;;;;;;4.20;2.70;;;;;;;21.46;55.47;99347.38;105001;1261;61135;-22
2023/09/02 12:28:14;;;;;;;4.00;2.30;;;;;;;21.19;56.59;99350.34;105130;1265;61164;-22
2023/09/02 12:30:41;;;;;;;2.90;2.20;;;;;;;21.07;58.95;99348.05;105698;1259;72802;-22
2023/09/02 12:33:08;;;;;;;2.80;2.00;;;;;;;20.98;57.95;99353.60;105698;1259;74148;-22
2023/09/02 12:35:35;;;;;;;4.40;2.20;;;;;;;20.84;58.88;99354.73;105825;1254;72504;-22
2023/09/02 12:38:06;;;;;;;4.70;3.00;;;;;;;20.77;59.80;99356.45;105624;1257;61121;-22
2023/09/02 12:40:33;;;;;;;4.40;2.30;;;;;;;20.77;59.73;99357.13;105679;1260;61194;-22
2023/09/02 12:43:00;;;;;;;4.90;2.40;;;;;;;20.75;59.95;99357.04;105926;1257;72928;-22
2023/09/02 12:45:28;;;;;;;5.30;2.60;;;;;;;20.73;61.22;99358.48;105896;1254;74242;-22
2023/09/02 12:47:58;;;;;;;4.00;2.50;;;;;;;20.78;61.62;99361.29;105865;1257;73047;-23
2023/09/02 12:50:26;;;;;;;5.00;2.70;;;;;;;20.80;61.51;99366.85;105744;1257;61134;-22
2023/09/02 12:53:03;;;;;;;4.70;3.00;;;;;;;20.65;61.16;99361.19;105584;1257;61186;-23
2023/09/02 12:55:30;;;;;;;4.00;2.80;;;;;;;20.54;62.01;99363.96;105644;1253;73062;-22
2023/09/02 12:57:57;;;;;;;5.00;2.80;;;;;;;20.52;62.18;99365.20;105875;1257;74322;-22
2023/09/02 13:00:24;;;;;;;5.30;2.60;;;;;;;20.53;61.83;99368.83;105868;1257;72663;-23
2023/09/02 13:02:55;;;;;;;9.60;2.60;;;;;;;20.47;61.46;99370.52;105775;1257;61061;-23
2023/09/02 13:05:22;;;;;;;5.90;2.70;;;;;;;20.44;61.25;99370.21;105564;1260;61188;-22
2023/09/02 13:07:49;;;;;;;3.00;2.10;;;;;;;20.39;61.45;99369.33;105764;1257;72881;-23
2023/09/02 13:10:32;;;;;;;3.70;2.20;;;;;;;20.23;61.22;99366.77;105857;1254;74179;-22
2023/09/02 13:12:59;;;;;;;6.10;2.10;;;;;;;20.17;61.13;99366.41;105725;1257;72730;-23
2023/09/02 13:15:28;;;;;;;2.90;1.80;;;;;;;20.11;60.72;99366.64;105852;1252;61010;-23
2023/09/02 13:17:56;;;;;;;2.80;1.70;;;;;;;20.01;60.64;99371.52;105850;1257;61174;-22
2023/09/02 13:20:23;;;;;;;2.50;1.60;;;;;;;19.91;60.61;99366.31;105642;1260;74378;-22
2023/09/02 13:22:50;;;;;;;2.60;1.80;;;;;;;19.81;60.50;99366.14;105703;1253;74703;-23
2023/09/02 13:25:17;;;;;;;5.90;2.20;;;;;;;19.77;61.73;99366.80;105723;1260;72448;-23
2023/09/02 13:27:44;;;;;;;3.30;2.00;;;;;;;19.73;62.51;99365.63;105738;1256;61041;-23
2023/09/02 13:30:12;;;;;;;3.90;2.50;;;;;;;19.68;63.36;99357.45;105805;1256;61087;-22
2023/09/02 13:32:39;;;;;;;3.90;2.80;;;;;;;19.62;64.67;99350.05;105730;1259;73817;-22
2023/09/02 13:35:17;;;;;;;7.60;3.30;;;;;;;19.57;65.32;99342.13;105682;1263;74333;-22
2023/09/02 13:37:46;;;;;;;6.00;3.20;;;;;;;19.55;65.51;99340.41;105579;1254;72710;-23
2023/09/02 13:40:19;;;;;;;5.20;3.00;;;;;;;19.52;66.01;99337.07;105331;1260;61165;-22
2023/09/02 13:42:47;;;;;;;5.80;4.00;;;;;;;19.41;67.12;99341.13;105644;1267;61149;-23
2023/09/02 13:45:14;;;;;;;13.80;6.00;;;;;;;19.83;66.38;99337.70;105508;1260;72500;-22
2023/09/02 13:47:48;;;;;;;16.10;7.50;;;;;;;20.32;64.80;99335.13;105805;1259;74304;-22
2023/09/02 13:50:15;;;;;;;15.00;6.40;;;;;;;20.54;64.32;99334.22;105519;1269;72415;-22
2023/09/02 13:52:43;;;;;;;15.30;8.00;;;;;;;20.46;64.45;99339.65;105645;1257;61102;-22
2023/09/02 13:55:10;;;;;;;11.00;4.90;;;;;;;20.28;64.32;99339.24;105421;1260;61135;-23
2023/09/02 13:57:37;;;;;;;13.20;4.90;;;;;;;20.11;65.32;99338.05;105734;1257;73809;-22
2023/09/02 14:00:16;;;;;;;11.00;5.00;;;;;;;19.91;66.19;99335.79;105687;1259;74666;-22
2023/09/02 14:02:43;;;;;;;12.90;4.60;;;;;;;19.76;67.81;99334.64;105737;1259;72407;-22
2023/09/02 14:05:14;;;;;;;8.50;4.10;;;;;;;19.63;68.72;99331.05;105759;1254;61052;-22
2023/09/02 14:07:42;;;;;;;11.70;5.20;;;;;;;19.48;69.09;99327.98;105678;1254;61152;-22
2023/09/02 14:10:10;;;;;;;6.50;2.90;;;;;;;19.40;70.47;99327.99;105737;1259;73934;-23
2023/09/02 14:12:38;;;;;;;10.40;5.00;;;;;;;19.95;68.94;99324.74;105518;1254;74696;-23
2023/09/02 14:15:06;;;;;;;9.60;4.90;;;;;;;20.41;66.01;99327.02;105508;1254;71765;-23
2023/09/02 14:17:34;;;;;;;9.10;5.50;;;;;;;20.52;65.55;99327.84;105650;1254;61294;-22
2023/09/02 14:20:01;;;;;;;10.70;5.70;;;;;;;20.46;65.44;99322.19;105612;1257;61107;-22
2023/09/02 14:22:28;;;;;;;9.80;5.40;;;;;;;20.31;65.97;99318.70;105871;1257;73837;-22
2023/09/02 14:24:55;;;;;;;7.80;4.50;;;;;;;20.15;66.68;99317.05;105833;1259;74203;-23
2023/09/02 14:27:22;;;;;;;5.90;3.60;;;;;;;20.03;66.91;99315.61;105868;1252;72615;-23
2023/09/02 14:29:49;;;;;;;5.90;3.30;;;;;;;19.89;66.97;99310.84;105558;1254;61141;-22
2023/09/02 14:32:17;;;;;;;6.70;3.40;;;;;;;19.77;67.41;99315.22;105489;1266;61144;-22
2023/09/02 14:34:46;;;;;;;5.20;2.80;;;;;;;19.66;67.98;99317.27;105687;1255;74486;-22
2023/09/02 14:37:14;;;;;;;6.50;3.00;;;;;;;19.54;67.88;99315.92;105655;1260;74135;-22
2023/09/02 14:39:41;;;;;;;5.40;3.30;;;;;;;19.43;68.26;99321.36;105863;1254;73155;-22
2023/09/02 14:42:08;;;;;;;2.40;2.00;;;;;;;19.44;68.46;99321.12;105783;1254;61055;-22
2023/09/02 14:44:35;;;;;;;3.00;2.40;;;;;;;19.93;67.41;99319.30;105757;1252;61176;-22
2023/09/02 14:47:02;;;;;;;8.60;5.20;;;;;;;20.47;65.12;99316.96;105817;1254;73710;-23
2023/09/02 14:49:29;;;;;;;15.30;9.10;;;;;;;20.52;63.90;99315.27;105706;1254;74327;-23
2023/09/02 14:51:56;;;;;;;39.80;26.20;;;;;;;20.41;64.45;99312.56;105691;1257;72692;-22
2023/09/02 14:54:23;;;;;;;32.40;21.00;;;;;;;20.42;64.58;99312.81;105615;1254;61128;-22